createdAt,value
2023-05-02T00:00:11.525Z,15.96
2023-05-02T00:01:11.609Z,15.99
2023-05-02T00:02:11.662Z,16.02
2023-05-02T00:03:11.689Z,16.06
2023-05-02T00:04:11.859Z,16.09
2023-05-02T00:05:11.597Z,16.08
2023-05-02T00:06:11.708Z,16.09
2023-05-02T00:07:11.693Z,16.11
2023-05-02T00:08:11.736Z,16.11
2023-05-02T00:09:11.754Z,16.09
2023-05-02T00:10:11.812Z,16.09
2023-05-02T00:11:11.862Z,16.13
2023-05-02T00:12:11.896Z,16.08
2023-05-02T00:13:11.937Z,16.04
2023-05-02T00:14:12.039Z,16.02
2023-05-02T00:15:11.981Z,16.08
2023-05-02T00:16:11.930Z,16.09
2023-05-02T00:17:12.086Z,16.13
2023-05-02T00:18:12.098Z,16.12
2023-05-02T00:19:12.494Z,16.13
2023-05-02T00:20:12.664Z,16.12
2023-05-02T00:21:12.020Z,16.09
2023-05-02T00:22:12.037Z,16.11
2023-05-02T00:23:12.065Z,16.09
2023-05-02T00:24:12.089Z,16.04
2023-05-02T00:25:12.097Z,16.04
2023-05-02T00:26:12.078Z,16.05
2023-05-02T00:27:12.150Z,16.04
2023-05-02T00:28:12.144Z,16.06
2023-05-02T00:29:12.157Z,16.06
2023-05-02T00:30:12.432Z,16.09
2023-05-02T00:31:12.177Z,16.11
2023-05-02T00:32:12.175Z,16.16
2023-05-02T00:33:12.266Z,16.15
2023-05-02T00:34:12.279Z,16.16
2023-05-02T00:35:12.379Z,16.20
2023-05-02T00:36:12.425Z,16.20
2023-05-02T00:37:12.498Z,16.20
2023-05-02T00:38:12.540Z,16.20
2023-05-02T00:39:12.625Z,16.23
2023-05-02T00:40:12.671Z,16.24
2023-05-02T00:41:12.699Z,16.24
2023-05-02T00:42:12.681Z,16.24
2023-05-02T00:43:12.677Z,16.19
2023-05-02T00:44:12.705Z,16.19
2023-05-02T00:45:12.707Z,16.19
2023-05-02T00:46:12.755Z,16.11
2023-05-02T00:47:12.785Z,16.11
2023-05-02T00:48:12.835Z,16.05
2023-05-02T00:49:12.804Z,16.06
2023-05-02T00:50:12.731Z,16.09
2023-05-02T00:51:12.701Z,16.11
2023-05-02T00:52:12.759Z,16.08
2023-05-02T00:53:12.755Z,16.13
2023-05-02T00:54:12.835Z,16.11
2023-05-02T00:55:12.868Z,16.15
2023-05-02T00:56:12.889Z,16.16
2023-05-02T00:57:12.934Z,16.19
2023-05-02T00:58:12.997Z,16.20
2023-05-02T00:59:13.075Z,16.23
2023-05-02T01:00:13.111Z,16.20
2023-05-02T01:01:13.160Z,16.19
2023-05-02T01:02:13.298Z,16.20
2023-05-02T01:03:13.317Z,16.24
2023-05-02T01:04:13.413Z,16.27
2023-05-02T01:05:13.290Z,16.24
2023-05-02T01:06:13.351Z,16.22
2023-05-02T01:07:13.355Z,16.09
2023-05-02T01:08:13.385Z,16.13
2023-05-02T01:09:13.392Z,16.09
2023-05-02T01:10:13.395Z,16.09
2023-05-02T01:11:13.364Z,16.12
2023-05-02T01:12:13.435Z,15.99
2023-05-02T01:13:13.384Z,15.91
2023-05-02T01:14:13.449Z,15.89
2023-05-02T01:15:13.414Z,15.96
2023-05-02T01:16:13.520Z,15.98
2023-05-02T01:17:13.504Z,16.02
2023-05-02T01:18:13.607Z,16.01
2023-05-02T01:19:13.468Z,16.02
2023-05-02T01:20:13.508Z,15.95
2023-05-02T01:21:13.495Z,15.98
2023-05-02T01:22:13.512Z,15.98
2023-05-02T01:23:13.587Z,15.92
2023-05-02T01:24:13.628Z,15.89
2023-05-02T01:25:13.685Z,15.95
2023-05-02T01:26:13.688Z,15.94
2023-05-02T01:27:13.733Z,15.91
2023-05-02T01:28:13.767Z,15.92
2023-05-02T01:29:13.935Z,15.69
2023-05-02T01:30:13.857Z,15.54
2023-05-02T01:31:13.940Z,15.58
2023-05-02T01:32:13.864Z,15.58
2023-05-02T01:33:13.905Z,15.47
2023-05-02T01:34:13.938Z,15.47
2023-05-02T01:35:13.844Z,15.26
2023-05-02T01:36:13.865Z,15.18
2023-05-02T01:37:13.921Z,15.16
2023-05-02T01:38:13.922Z,15.25
2023-05-02T01:39:13.861Z,15.36
2023-05-02T01:40:13.890Z,15.43
2023-05-02T01:41:13.961Z,15.53
2023-05-02T01:42:14.003Z,15.62
2023-05-02T01:43:14.037Z,15.68
2023-05-02T01:44:14.098Z,15.72
2023-05-02T01:45:14.101Z,15.80
2023-05-02T01:46:14.331Z,15.81
2023-05-02T01:47:14.328Z,15.88
2023-05-02T01:48:14.313Z,15.94
2023-05-02T01:49:14.378Z,15.95
2023-05-02T01:50:14.442Z,16.01
2023-05-02T01:51:14.474Z,16.02
2023-05-02T01:52:14.832Z,16.05
2023-05-02T01:53:14.546Z,16.09
2023-05-02T01:54:14.627Z,16.11
2023-05-02T01:55:14.600Z,16.12
2023-05-02T01:56:14.692Z,16.09
2023-05-02T01:57:14.997Z,16.09
2023-05-02T01:58:14.700Z,16.09
2023-05-02T01:59:14.747Z,16.13
2023-05-02T02:00:14.798Z,16.09
2023-05-02T02:01:14.908Z,16.09
2023-05-02T02:02:14.964Z,16.17
2023-05-02T02:03:14.914Z,16.16
2023-05-02T02:04:15.058Z,16.13
2023-05-02T02:05:14.973Z,16.15
2023-05-02T02:06:14.995Z,16.15
2023-05-02T02:07:14.992Z,16.13
2023-05-02T02:08:15.062Z,16.12
2023-05-02T02:09:15.101Z,15.98
2023-05-02T02:10:15.134Z,15.98
2023-05-02T02:11:15.126Z,15.96
2023-05-02T02:12:15.177Z,15.98
2023-05-02T02:13:15.231Z,15.96
2023-05-02T02:14:15.304Z,15.99
2023-05-02T02:15:15.240Z,15.98
2023-05-02T02:16:15.287Z,15.96
2023-05-02T02:17:15.313Z,15.91
2023-05-02T02:18:15.405Z,15.92
2023-05-02T02:19:15.416Z,15.92
2023-05-02T02:20:15.398Z,15.91
2023-05-02T02:21:15.392Z,15.98
2023-05-02T02:22:15.408Z,16.01
2023-05-02T02:23:15.711Z,16.04
2023-05-02T02:24:15.459Z,16.05
2023-05-02T02:25:15.513Z,16.04
2023-05-02T02:26:15.478Z,15.91
2023-05-02T02:27:15.496Z,15.85
2023-05-02T02:28:15.545Z,15.78
2023-05-02T02:29:15.607Z,15.74
2023-05-02T02:30:15.608Z,15.62
2023-05-02T02:31:15.683Z,15.57
2023-05-02T02:32:15.767Z,15.64
2023-05-02T02:33:15.787Z,15.65
2023-05-02T02:34:15.844Z,15.65
2023-05-02T02:35:15.921Z,15.71
2023-05-02T02:36:15.961Z,15.75
2023-05-02T02:37:16.014Z,15.72
2023-05-02T02:38:16.036Z,15.71
2023-05-02T02:39:16.070Z,15.71
2023-05-02T02:40:16.123Z,15.72
2023-05-02T02:41:16.150Z,15.74
2023-05-02T02:42:16.219Z,15.77
2023-05-02T02:43:16.158Z,15.75
2023-05-02T02:44:16.159Z,15.58
2023-05-02T02:45:16.169Z,15.54
2023-05-02T02:46:16.200Z,15.64
2023-05-02T02:47:16.483Z,15.64
2023-05-02T02:48:16.293Z,15.69
2023-05-02T02:49:16.226Z,15.65
2023-05-02T02:50:16.217Z,15.68
2023-05-02T02:51:16.256Z,15.72
2023-05-02T02:52:16.223Z,15.69
2023-05-02T02:53:17.253Z,15.72
2023-05-02T02:54:26.411Z,15.72
2023-05-02T02:55:17.273Z,15.77
2023-05-02T02:56:16.249Z,15.74
2023-05-02T02:57:16.252Z,15.78
2023-05-02T02:58:16.269Z,15.78
2023-05-02T02:59:16.318Z,15.80
2023-05-02T03:00:16.241Z,15.82
2023-05-02T03:01:16.247Z,15.78
2023-05-02T03:02:16.236Z,15.75
2023-05-02T03:03:16.257Z,15.69
2023-05-02T03:04:16.219Z,15.46
2023-05-02T03:05:16.256Z,15.46
2023-05-02T03:06:16.222Z,15.36
2023-05-02T03:07:16.222Z,15.18
2023-05-02T03:08:16.173Z,15.16
2023-05-02T03:09:16.176Z,15.25
2023-05-02T03:10:16.180Z,15.16
2023-05-02T03:11:16.147Z,15.19
2023-05-02T03:12:16.166Z,15.12
2023-05-02T03:13:16.205Z,15.26
2023-05-02T03:14:16.155Z,15.23
2023-05-02T03:15:16.179Z,15.18
2023-05-02T03:16:16.141Z,15.15
2023-05-02T03:17:16.211Z,15.16
2023-05-02T03:18:16.228Z,15.13
2023-05-02T03:19:16.218Z,15.26
2023-05-02T03:20:16.245Z,15.29
2023-05-02T03:21:16.348Z,15.29
2023-05-02T03:22:16.375Z,15.37
2023-05-02T03:23:16.515Z,15.44
2023-05-02T03:24:18.907Z,15.39
2023-05-02T03:25:16.528Z,15.44
2023-05-02T03:26:16.452Z,15.54
2023-05-02T03:27:16.460Z,15.54
2023-05-02T03:28:16.479Z,15.56
2023-05-02T03:29:16.529Z,15.50
2023-05-02T03:30:16.464Z,15.47
2023-05-02T03:31:16.511Z,15.49
2023-05-02T03:32:16.453Z,15.50
2023-05-02T03:33:16.634Z,15.40
2023-05-02T03:34:16.438Z,15.44
2023-05-02T03:35:16.504Z,15.51
2023-05-02T03:36:16.415Z,15.58
2023-05-02T03:37:16.446Z,15.57
2023-05-02T03:38:16.405Z,15.64
2023-05-02T03:39:16.452Z,15.67
2023-05-02T03:40:16.389Z,15.67
2023-05-02T03:41:16.358Z,15.58
2023-05-02T03:42:16.383Z,15.67
2023-05-02T03:43:16.341Z,15.67
2023-05-02T03:44:16.378Z,15.68
2023-05-02T03:45:16.356Z,15.69
2023-05-02T03:46:16.334Z,15.68
2023-05-02T03:47:16.364Z,15.71
2023-05-02T03:48:16.338Z,15.68
2023-05-02T03:49:16.379Z,15.71
2023-05-02T03:50:16.357Z,15.77
2023-05-02T03:51:16.295Z,15.78
2023-05-02T03:52:16.329Z,15.71
2023-05-02T03:53:16.304Z,15.72
2023-05-02T03:54:16.424Z,15.62
2023-05-02T03:55:16.429Z,15.72
2023-05-02T03:56:16.272Z,15.67
2023-05-02T03:57:16.290Z,15.61
2023-05-02T03:58:16.240Z,15.68
2023-05-02T03:59:16.293Z,15.69
2023-05-02T04:00:16.267Z,15.77
2023-05-02T04:01:16.282Z,15.81
2023-05-02T04:02:16.309Z,15.89
2023-05-02T04:03:16.314Z,15.95
2023-05-02T04:04:16.351Z,15.99
2023-05-02T04:05:16.330Z,16.04
2023-05-02T04:06:16.414Z,16.09
2023-05-02T04:07:16.426Z,16.16
2023-05-02T04:08:16.477Z,16.17
2023-05-02T04:09:16.553Z,16.27
2023-05-02T04:10:16.577Z,16.26
2023-05-02T04:11:16.704Z,16.29
2023-05-02T04:12:16.670Z,16.34
2023-05-02T04:13:16.746Z,16.41
2023-05-02T04:14:16.762Z,16.44
2023-05-02T04:15:16.887Z,16.49
2023-05-02T04:16:16.901Z,16.26
2023-05-02T04:17:17.078Z,16.12
2023-05-02T04:18:17.014Z,16.06
2023-05-02T04:19:17.045Z,15.99
2023-05-02T04:20:17.072Z,15.88
2023-05-02T04:21:17.119Z,15.99
2023-05-02T04:22:17.153Z,16.06
2023-05-02T04:23:17.207Z,16.13
2023-05-02T04:24:17.288Z,16.19
2023-05-02T04:25:17.244Z,16.19
2023-05-02T04:26:17.336Z,16.19
2023-05-02T04:27:17.322Z,16.27
2023-05-02T04:28:17.349Z,16.37
2023-05-02T04:29:17.387Z,16.40
2023-05-02T04:30:17.414Z,16.44
2023-05-02T04:31:17.504Z,16.39
2023-05-02T04:32:17.521Z,16.50
2023-05-02T04:33:17.584Z,16.56
2023-05-02T04:34:17.591Z,16.61
2023-05-02T04:35:17.724Z,16.63
2023-05-02T04:36:17.729Z,16.67
2023-05-02T04:37:17.747Z,16.53
2023-05-02T04:38:17.849Z,16.39
2023-05-02T04:39:17.848Z,16.44
2023-05-02T04:40:17.860Z,16.49
2023-05-02T04:41:17.923Z,16.40
2023-05-02T04:42:17.960Z,16.41
2023-05-02T04:43:17.992Z,16.47
2023-05-02T04:44:18.018Z,16.47
2023-05-02T04:45:18.000Z,16.46
2023-05-02T04:46:18.082Z,16.49
2023-05-02T04:47:18.073Z,16.44
2023-05-02T04:48:18.081Z,16.23
2023-05-02T04:49:18.218Z,16.13
2023-05-02T04:50:18.247Z,15.94
2023-05-02T04:51:18.205Z,15.77
2023-05-02T04:52:18.311Z,15.64
2023-05-02T04:53:18.364Z,15.65
2023-05-02T04:54:18.525Z,15.78
2023-05-02T04:55:18.472Z,15.91
2023-05-02T04:56:18.524Z,15.96
2023-05-02T04:57:19.024Z,16.11
2023-05-02T04:58:18.601Z,16.17
2023-05-02T04:59:18.655Z,16.26
2023-05-02T05:01:45.816Z,16.39
2023-05-02T05:02:38.133Z,16.43
2023-05-02T05:03:38.289Z,16.44
2023-05-02T05:04:38.108Z,16.49
2023-05-02T05:05:38.145Z,16.53
2023-05-02T05:06:38.260Z,16.54
2023-05-02T05:07:38.050Z,16.58
2023-05-02T05:08:38.065Z,16.57
2023-05-02T05:09:38.075Z,16.57
2023-05-02T05:10:38.048Z,16.61
2023-05-02T05:11:38.033Z,16.64
2023-05-02T05:12:38.031Z,16.64
2023-05-02T05:13:38.014Z,16.68
2023-05-02T05:14:38.081Z,16.70
2023-05-02T05:15:38.049Z,16.67
2023-05-02T05:16:38.078Z,16.72
2023-05-02T05:17:38.043Z,16.77
2023-05-02T05:18:37.979Z,16.78
2023-05-02T05:19:38.087Z,16.82
2023-05-02T05:20:38.058Z,16.72
2023-05-02T05:21:38.180Z,16.75
2023-05-02T05:22:38.165Z,16.79
2023-05-02T05:23:38.661Z,16.82
2023-05-02T05:24:38.310Z,16.87
2023-05-02T05:25:38.364Z,16.89
2023-05-02T05:26:38.378Z,16.88
2023-05-02T05:27:38.446Z,16.92
2023-05-02T05:28:38.481Z,16.85
2023-05-02T05:29:38.583Z,16.81
2023-05-02T05:30:38.619Z,16.88
2023-05-02T05:31:38.706Z,16.89
2023-05-02T05:32:38.729Z,16.91
2023-05-02T05:33:38.815Z,16.94
2023-05-02T05:34:38.864Z,16.94
2023-05-02T05:35:39.555Z,16.89
2023-05-02T05:36:39.407Z,16.94
2023-05-02T05:37:38.991Z,16.95
2023-05-02T05:38:39.114Z,16.67
2023-05-02T05:39:39.357Z,16.53
2023-05-02T05:40:39.110Z,16.61
2023-05-02T05:41:39.189Z,16.70
2023-05-02T05:42:39.288Z,16.75
2023-05-02T05:43:39.264Z,16.71
2023-05-02T05:44:39.367Z,16.77
2023-05-02T05:45:39.335Z,16.82
2023-05-02T05:47:59.131Z,16.60
2023-05-02T05:48:58.995Z,16.67
2023-05-02T05:49:59.097Z,16.68
2023-05-02T05:50:58.929Z,16.79
2023-05-02T05:51:58.941Z,16.87
2023-05-02T05:52:58.937Z,16.88
2023-05-02T05:53:58.963Z,16.96
2023-05-02T05:54:58.863Z,16.96
2023-05-02T05:56:01.520Z,17.02
2023-05-02T05:56:58.889Z,17.04
2023-05-02T05:57:58.889Z,16.99
2023-05-02T05:58:58.935Z,16.84
2023-05-02T05:59:59.086Z,16.91
2023-05-02T06:00:58.901Z,17.01
2023-05-02T06:01:58.813Z,16.82
2023-05-02T06:02:59.057Z,16.88
2023-05-02T06:03:59.622Z,16.95
2023-05-02T06:04:58.941Z,16.98
2023-05-02T06:05:58.947Z,16.95
2023-05-02T06:06:58.875Z,16.99
2023-05-02T06:07:58.855Z,16.99
2023-05-02T06:08:58.841Z,17.01
2023-05-02T06:09:58.985Z,17.04
2023-05-02T06:10:58.782Z,17.05
2023-05-02T06:11:58.868Z,16.99
2023-05-02T06:12:58.835Z,16.84
2023-05-02T06:13:58.769Z,16.79
2023-05-02T06:14:59.092Z,16.70
2023-05-02T06:15:58.823Z,16.71
2023-05-02T06:16:58.907Z,16.74
2023-05-02T06:17:59.782Z,16.77
2023-05-02T06:18:58.778Z,16.75
2023-05-02T06:19:59.209Z,16.75
2023-05-02T06:20:58.729Z,16.81
2023-05-02T06:21:58.732Z,16.81
2023-05-02T06:22:58.824Z,16.79
2023-05-02T06:23:58.739Z,16.84
2023-05-02T06:24:58.764Z,16.87
2023-05-02T06:25:58.757Z,16.95
2023-05-02T06:26:58.777Z,16.89
2023-05-02T06:27:58.670Z,16.88
2023-05-02T06:28:58.679Z,16.98
2023-05-02T06:29:58.977Z,17.02
2023-05-02T06:30:58.693Z,17.05
2023-05-02T06:31:58.916Z,17.02
2023-05-02T06:32:58.703Z,17.08
2023-05-02T06:33:58.670Z,17.11
2023-05-02T06:34:58.714Z,17.11
2023-05-02T06:35:59.969Z,17.09
2023-05-02T06:36:58.669Z,17.18
2023-05-02T06:37:58.708Z,17.19
2023-05-02T06:38:58.631Z,17.16
2023-05-02T06:39:59.173Z,17.18
2023-05-02T06:40:58.601Z,17.15
2023-05-02T06:41:58.656Z,17.08
2023-05-02T06:42:58.681Z,17.08
2023-05-02T06:43:58.563Z,17.08
2023-05-02T06:44:59.088Z,17.05
2023-05-02T06:45:58.843Z,17.02
2023-05-02T06:46:58.605Z,16.95
2023-05-02T06:47:58.667Z,16.89
2023-05-02T06:48:58.599Z,16.94
2023-05-02T06:49:58.997Z,16.96
2023-05-02T06:50:59.543Z,16.95
2023-05-02T06:51:59.494Z,16.89
2023-05-02T06:52:58.532Z,16.91
2023-05-02T06:53:59.566Z,16.92
2023-05-02T06:54:59.221Z,16.95
2023-05-02T06:55:58.576Z,16.91
2023-05-02T06:56:58.522Z,16.94
2023-05-02T06:57:58.504Z,16.94
2023-05-02T06:58:59.093Z,16.78
2023-05-02T06:59:58.766Z,16.87
2023-05-02T07:00:58.566Z,16.75
2023-05-02T07:01:58.467Z,16.77
2023-05-02T07:02:58.535Z,16.75
2023-05-02T07:03:58.565Z,16.82
2023-05-02T07:04:58.603Z,16.89
2023-05-02T07:05:58.745Z,16.94
2023-05-02T07:06:58.624Z,16.98
2023-05-02T07:07:58.742Z,16.96
2023-05-02T07:08:58.728Z,16.99
2023-05-02T07:09:59.234Z,16.92
2023-05-02T07:10:58.841Z,16.84
2023-05-02T07:11:58.847Z,16.82
2023-05-02T07:12:58.869Z,16.81
2023-05-02T07:13:58.913Z,16.75
2023-05-02T07:14:59.179Z,16.78
2023-05-02T07:15:59.113Z,16.89
2023-05-02T07:16:59.277Z,16.98
2023-05-02T07:17:59.260Z,17.06
2023-05-02T07:18:59.213Z,17.11
2023-05-02T07:19:59.613Z,16.98
2023-05-02T07:20:59.218Z,17.01
2023-05-02T07:21:59.261Z,17.05
2023-05-02T07:22:59.354Z,16.91
2023-05-02T07:24:01.100Z,16.85
2023-05-02T07:24:59.514Z,16.71
2023-05-02T07:25:59.261Z,16.79
2023-05-02T07:26:59.312Z,16.79
2023-05-02T07:27:59.377Z,16.92
2023-05-02T07:28:59.486Z,16.87
2023-05-02T07:29:59.864Z,16.57
2023-05-02T07:31:00.151Z,16.63
2023-05-02T07:31:59.920Z,16.70
2023-05-02T07:32:59.654Z,16.60
2023-05-02T07:33:59.623Z,16.71
2023-05-02T07:34:59.752Z,16.82
2023-05-02T07:36:00.059Z,16.87
2023-05-02T07:36:59.809Z,16.68
2023-05-02T07:37:59.880Z,16.66
2023-05-02T07:38:59.851Z,16.72
2023-05-02T07:40:00.261Z,16.85
2023-05-02T07:41:00.105Z,16.88
2023-05-02T07:42:00.155Z,16.94
2023-05-02T07:43:00.007Z,16.96
2023-05-02T07:44:00.027Z,16.95
2023-05-02T07:45:00.181Z,17.09
2023-05-02T07:46:00.213Z,16.96
2023-05-02T07:47:00.127Z,17.06
2023-05-02T07:48:00.317Z,16.96
2023-05-02T07:49:00.267Z,17.12
2023-05-02T07:50:00.734Z,17.08
2023-05-02T07:51:00.527Z,16.94
2023-05-02T07:52:00.255Z,16.77
2023-05-02T07:53:00.281Z,16.71
2023-05-02T07:54:00.370Z,16.87
2023-05-02T07:55:00.376Z,17.02
2023-05-02T07:56:00.388Z,16.94
2023-05-02T07:57:00.404Z,17.02
2023-05-02T07:58:00.549Z,17.04
2023-05-02T07:59:00.438Z,17.11
2023-05-02T08:00:00.944Z,17.22
2023-05-02T08:01:00.545Z,17.32
2023-05-02T08:02:00.550Z,17.41
2023-05-02T08:03:00.647Z,17.46
2023-05-02T08:04:00.806Z,17.01
2023-05-02T08:05:00.683Z,17.16
2023-05-02T08:06:01.136Z,17.27
2023-05-02T08:07:00.701Z,17.18
2023-05-02T08:08:00.780Z,17.32
2023-05-02T08:09:00.803Z,16.94
2023-05-02T08:10:01.219Z,17.08
2023-05-02T08:11:01.624Z,17.22
2023-05-02T08:12:00.896Z,17.08
2023-05-02T08:13:00.951Z,17.22
2023-05-02T08:14:00.938Z,17.30
2023-05-02T08:15:01.190Z,16.81
2023-05-02T08:16:01.611Z,16.85
2023-05-02T08:17:01.042Z,16.91
2023-05-02T08:18:01.219Z,16.95
2023-05-02T08:19:01.265Z,16.94
2023-05-02T08:20:01.426Z,16.92
2023-05-02T08:21:01.632Z,16.77
2023-05-02T08:22:01.167Z,16.95
2023-05-02T08:23:01.211Z,17.05
2023-05-02T08:24:01.239Z,16.94
2023-05-02T08:25:01.220Z,17.23
2023-05-02T08:26:01.239Z,17.37
2023-05-02T08:27:01.244Z,17.46
2023-05-02T08:28:01.245Z,17.56
2023-05-02T08:29:01.263Z,17.66
2023-05-02T08:30:01.618Z,17.73
2023-05-02T08:31:01.307Z,17.80
2023-05-02T08:32:01.625Z,17.86
2023-05-02T08:33:01.494Z,17.89
2023-05-02T08:34:01.462Z,17.85
2023-05-02T08:35:01.524Z,17.80
2023-05-02T08:36:02.131Z,17.78
2023-05-02T08:37:01.613Z,17.85
2023-05-02T08:38:01.619Z,17.98
2023-05-02T08:39:01.618Z,18.05
2023-05-02T08:40:01.993Z,18.09
2023-05-02T08:41:02.758Z,18.28
2023-05-02T08:42:01.732Z,18.19
2023-05-02T08:43:01.736Z,18.17
2023-05-02T08:44:01.881Z,18.15
2023-05-02T08:45:01.879Z,18.23
2023-05-02T08:46:02.055Z,18.26
2023-05-02T08:47:02.278Z,18.41
2023-05-02T08:48:02.039Z,18.43
2023-05-02T08:49:02.095Z,18.56
2023-05-02T08:50:02.588Z,18.64
2023-05-02T08:51:02.539Z,18.77
2023-05-02T08:52:02.140Z,18.77
2023-05-02T08:53:02.230Z,18.83
2023-05-02T08:54:02.182Z,18.81
2023-05-02T08:55:02.705Z,18.87
2023-05-02T08:56:02.550Z,18.91
2023-05-02T08:57:02.262Z,18.88
2023-05-02T08:58:02.374Z,18.77
2023-05-02T08:59:02.358Z,18.74
2023-05-02T09:00:02.983Z,18.64
2023-05-02T09:01:02.377Z,18.58
2023-05-02T09:02:02.637Z,18.67
2023-05-02T09:03:02.546Z,18.75
2023-05-02T09:04:02.708Z,18.77
2023-05-02T09:05:03.043Z,18.90
2023-05-02T09:06:02.601Z,18.93
2023-05-02T09:07:02.739Z,18.95
2023-05-02T09:08:02.688Z,18.93
2023-05-02T09:09:02.646Z,18.99
2023-05-02T09:10:02.790Z,19.02
2023-05-02T09:11:02.816Z,18.98
2023-05-02T09:12:02.760Z,19.01
2023-05-02T09:13:02.689Z,19.08
2023-05-02T09:14:02.785Z,19.08
2023-05-02T09:15:02.801Z,18.95
2023-05-02T09:16:03.182Z,18.81
2023-05-02T09:17:02.859Z,18.74
2023-05-02T09:18:02.846Z,18.91
2023-05-02T09:19:02.842Z,18.97
2023-05-02T09:20:02.941Z,19.11
2023-05-02T09:21:03.113Z,19.06
2023-05-02T09:22:02.846Z,19.19
2023-05-02T09:23:02.954Z,19.22
2023-05-02T09:24:03.968Z,19.27
2023-05-02T09:25:03.058Z,19.22
2023-05-02T09:26:03.592Z,19.27
2023-05-02T09:27:03.395Z,19.37
2023-05-02T09:28:03.180Z,19.47
2023-05-02T09:29:03.264Z,19.47
2023-05-02T09:30:03.311Z,19.40
2023-05-02T09:31:04.068Z,19.49
2023-05-02T09:32:03.577Z,19.58
2023-05-02T09:33:03.475Z,19.64
2023-05-02T09:34:03.474Z,19.70
2023-05-02T09:35:03.537Z,19.80
2023-05-02T09:36:03.641Z,19.88
2023-05-02T09:37:03.674Z,19.92
2023-05-02T09:38:03.805Z,20.01
2023-05-02T09:39:03.724Z,20.07
2023-05-02T09:40:03.787Z,20.09
2023-05-02T09:41:04.096Z,20.12
2023-05-02T09:42:04.079Z,20.12
2023-05-02T09:43:04.093Z,20.15
2023-05-02T09:44:03.951Z,20.18
2023-05-02T09:45:04.046Z,20.19
2023-05-02T09:46:04.196Z,20.19
2023-05-02T09:47:06.182Z,20.23
2023-05-02T09:48:04.212Z,20.29
2023-05-02T09:49:04.141Z,20.25
2023-05-02T09:50:05.092Z,20.26
2023-05-02T09:51:04.551Z,20.21
2023-05-02T09:52:04.273Z,20.12
2023-05-02T09:53:04.268Z,20.16
2023-05-02T09:54:04.309Z,20.13
2023-05-02T09:55:04.344Z,19.89
2023-05-02T09:56:04.612Z,19.78
2023-05-02T09:57:04.404Z,19.40
2023-05-02T09:58:04.532Z,19.34
2023-05-02T09:59:04.524Z,19.30
2023-05-02T10:00:04.609Z,19.13
2023-05-02T10:01:05.592Z,19.13
2023-05-02T10:02:04.691Z,19.21
2023-05-02T10:03:04.803Z,19.21
2023-05-02T10:04:04.772Z,19.22
2023-05-02T10:05:05.002Z,19.29
2023-05-02T10:06:05.142Z,19.01
2023-05-02T10:07:05.012Z,19.22
2023-05-02T10:08:05.121Z,19.32
2023-05-02T10:09:05.116Z,19.40
2023-05-02T10:10:05.208Z,19.12
2023-05-02T10:11:05.218Z,19.26
2023-05-02T10:12:05.321Z,19.26
2023-05-02T10:13:05.334Z,19.26
2023-05-02T10:14:05.946Z,19.32
2023-05-02T10:15:05.443Z,19.43
2023-05-02T10:16:06.278Z,19.27
2023-05-02T10:17:05.475Z,19.29
2023-05-02T10:18:05.623Z,19.29
2023-05-02T10:19:05.721Z,18.88
2023-05-02T10:20:05.779Z,19.15
2023-05-02T10:21:05.808Z,19.06
2023-05-02T10:22:06.543Z,19.12
2023-05-02T10:23:05.921Z,19.32
2023-05-02T10:24:05.922Z,19.47
2023-05-02T10:25:05.952Z,19.63
2023-05-02T10:26:05.930Z,19.77
2023-05-02T10:27:06.187Z,19.87
2023-05-02T10:28:06.048Z,19.89
2023-05-02T10:29:06.002Z,19.89
2023-05-02T10:30:06.176Z,19.87
2023-05-02T10:31:06.208Z,19.91
2023-05-02T10:32:06.802Z,19.99
2023-05-02T10:33:06.209Z,20.12
2023-05-02T10:34:06.205Z,20.23
2023-05-02T10:35:06.214Z,20.33
2023-05-02T10:36:06.623Z,20.37
2023-05-02T10:37:07.037Z,20.47
2023-05-02T10:38:06.424Z,20.46
2023-05-02T10:39:07.148Z,20.57
2023-05-02T10:40:07.063Z,20.60
2023-05-02T10:41:06.489Z,20.63
2023-05-02T10:42:07.163Z,20.71
2023-05-02T10:43:06.663Z,20.58
2023-05-02T10:44:06.618Z,20.70
2023-05-02T10:45:06.694Z,20.80
2023-05-02T10:46:06.823Z,20.84
2023-05-02T10:47:07.697Z,20.77
2023-05-02T10:48:06.932Z,20.90
2023-05-02T10:49:06.819Z,21.01
2023-05-02T10:50:07.444Z,21.11
2023-05-02T10:51:06.922Z,21.16
2023-05-02T10:52:07.143Z,21.19
2023-05-02T10:53:06.939Z,21.26
2023-05-02T10:54:06.962Z,21.01
2023-05-02T10:55:06.964Z,21.09
2023-05-02T10:56:07.085Z,21.13
2023-05-02T10:57:07.062Z,21.18
2023-05-02T10:58:07.062Z,21.15
2023-05-02T10:59:07.092Z,21.18
2023-05-02T11:00:08.114Z,20.80
2023-05-02T11:01:08.294Z,20.83
2023-05-02T11:02:07.699Z,20.84
2023-05-02T11:03:07.271Z,20.32
2023-05-02T11:04:07.223Z,20.33
2023-05-02T11:05:07.358Z,20.30
2023-05-02T11:06:07.346Z,19.92
2023-05-02T11:07:07.380Z,20.05
2023-05-02T11:08:07.456Z,20.02
2023-05-02T11:09:07.450Z,20.09
2023-05-02T11:10:07.470Z,20.18
2023-05-02T11:11:07.472Z,20.23
2023-05-02T11:12:08.208Z,20.39
2023-05-02T11:13:07.568Z,20.49
2023-05-02T11:14:07.581Z,20.57
2023-05-02T11:15:07.615Z,20.67
2023-05-02T11:16:07.667Z,20.76
2023-05-02T11:17:07.721Z,20.80
2023-05-02T11:18:07.932Z,20.85
2023-05-02T11:19:07.720Z,20.91
2023-05-02T11:20:07.843Z,20.88
2023-05-02T11:21:07.864Z,20.88
2023-05-02T11:22:07.937Z,20.93
2023-05-02T11:23:07.972Z,20.91
2023-05-02T11:24:07.943Z,20.93
2023-05-02T11:25:08.086Z,20.97
2023-05-02T11:26:08.097Z,20.93
2023-05-02T11:27:08.055Z,20.93
2023-05-02T11:28:08.101Z,20.81
2023-05-02T11:29:08.112Z,20.70
2023-05-02T11:30:09.507Z,20.70
2023-05-02T11:31:08.169Z,20.74
2023-05-02T11:32:08.698Z,20.81
2023-05-02T11:33:08.283Z,20.68
2023-05-02T11:34:08.930Z,20.73
2023-05-02T11:35:09.188Z,20.68
2023-05-02T11:36:08.166Z,20.70
2023-05-02T11:37:09.435Z,20.78
2023-05-02T11:38:08.174Z,20.85
2023-05-02T11:39:08.071Z,20.91
2023-05-02T11:40:08.081Z,20.93
2023-05-02T11:41:08.072Z,20.97
2023-05-02T11:42:08.025Z,20.90
2023-05-02T11:43:08.089Z,20.93
2023-05-02T11:44:08.083Z,20.80
2023-05-02T11:45:08.060Z,20.91
2023-05-02T11:46:08.079Z,20.95
2023-05-02T11:47:08.138Z,20.84
2023-05-02T11:48:08.170Z,20.95
2023-05-02T11:49:09.325Z,20.88
2023-05-02T11:50:08.064Z,20.87
2023-05-02T11:51:08.268Z,20.94
2023-05-02T11:52:08.071Z,20.90
2023-05-02T11:53:07.956Z,20.66
2023-05-02T11:54:08.034Z,20.54
2023-05-02T11:55:09.711Z,20.37
2023-05-02T11:56:08.196Z,20.37
2023-05-02T11:57:08.110Z,20.12
2023-05-02T11:58:08.229Z,20.23
2023-05-02T11:59:08.191Z,20.35
2023-05-02T12:00:08.287Z,20.50
2023-05-02T12:01:09.536Z,20.58
2023-05-02T12:02:08.993Z,20.02
2023-05-02T12:03:08.383Z,20.02
2023-05-02T12:04:08.382Z,19.98
2023-05-02T12:05:08.372Z,19.87
2023-05-02T12:06:08.395Z,19.56
2023-05-02T12:07:10.207Z,19.67
2023-05-02T12:08:08.379Z,19.77
2023-05-02T12:09:08.390Z,19.91
2023-05-02T12:10:08.381Z,19.94
2023-05-02T12:11:08.330Z,19.91
2023-05-02T12:12:08.324Z,19.74
2023-05-02T12:13:09.435Z,19.92
2023-05-02T12:14:08.286Z,19.91
2023-05-02T12:15:08.399Z,20.07
2023-05-02T12:16:08.334Z,20.13
2023-05-02T12:17:08.335Z,20.21
2023-05-02T12:18:08.301Z,20.11
2023-05-02T12:19:08.353Z,20.26
2023-05-02T12:20:08.276Z,20.39
2023-05-02T12:21:08.255Z,20.49
2023-05-02T12:22:08.251Z,20.58
2023-05-02T12:23:08.271Z,20.53
2023-05-02T12:24:08.282Z,20.54
2023-05-02T12:25:08.286Z,20.56
2023-05-02T12:26:08.191Z,20.54
2023-05-02T12:27:08.226Z,20.56
2023-05-02T12:28:08.222Z,20.53
2023-05-02T12:29:08.214Z,20.33
2023-05-02T12:30:08.236Z,20.37
2023-05-02T12:31:08.235Z,20.36
2023-05-02T12:32:08.252Z,20.35
2023-05-02T12:33:08.284Z,20.33
2023-05-02T12:34:08.266Z,20.23
2023-05-02T12:35:08.369Z,20.30
2023-05-02T12:36:08.360Z,20.21
2023-05-02T12:37:08.464Z,19.88
2023-05-02T12:38:08.401Z,19.71
2023-05-02T12:39:08.481Z,19.85
2023-05-02T12:40:08.514Z,19.84
2023-05-02T12:41:08.573Z,19.99
2023-05-02T12:42:08.629Z,20.05
2023-05-02T12:43:08.856Z,19.95
2023-05-02T12:44:08.703Z,19.77
2023-05-02T12:45:08.740Z,19.91
2023-05-02T12:46:08.739Z,20.02
2023-05-02T12:47:08.892Z,20.05
2023-05-02T12:48:08.840Z,20.11
2023-05-02T12:49:08.843Z,20.13
2023-05-02T12:50:08.825Z,20.25
2023-05-02T12:51:08.867Z,20.37
2023-05-02T12:52:08.977Z,20.54
2023-05-02T12:53:08.959Z,20.53
2023-05-02T12:54:09.000Z,20.53
2023-05-02T12:55:08.978Z,20.60